sensor_id;sensor_type;location;lat;lon;timestamp;pressure;altitude;pressure_sealevel;temperature;humidity
48053;BME280;33824;51.600;5.718;2023-04-04T00:01:03;102809.00;;;2.70;69.52
48053;BME280;33824;51.600;5.718;2023-04-04T00:03:28;102807.38;;;2.68;69.92
48053;BME280;33824;51.600;5.718;2023-04-04T00:05:54;102803.19;;;2.64;69.76
48053;BME280;33824;51.600;5.718;2023-04-04T00:08:21;102807.00;;;2.58;69.70
48053;BME280;33824;51.600;5.718;2023-04-04T00:10:47;102813.38;;;2.53;69.94
48053;BME280;33824;51.600;5.718;2023-04-04T00:13:12;102813.53;;;2.50;70.07
48053;BME280;33824;51.600;5.718;2023-04-04T00:15:38;102815.47;;;2.46;70.39
48053;BME280;33824;51.600;5.718;2023-04-04T00:18:04;102819.88;;;2.46;70.41
48053;BME280;33824;51.600;5.718;2023-04-04T00:20:29;102814.84;;;2.41;70.64
48053;BME280;33824;51.600;5.718;2023-04-04T00:22:56;102811.44;;;2.39;70.62
48053;BME280;33824;51.600;5.718;2023-04-04T00:25:22;102815.00;;;2.38;70.95
48053;BME280;33824;51.600;5.718;2023-04-04T00:27:48;102806.38;;;2.34;71.02
48053;BME280;33824;51.600;5.718;2023-04-04T00:30:13;102811.81;;;2.31;70.87
48053;BME280;33824;51.600;5.718;2023-04-04T00:32:39;102811.94;;;2.28;71.34
48053;BME280;33824;51.600;5.718;2023-04-04T00:35:05;102818.19;;;2.26;71.18
48053;BME280;33824;51.600;5.718;2023-04-04T00:37:31;102819.22;;;2.23;71.45
48053;BME280;33824;51.600;5.718;2023-04-04T00:39:57;102814.00;;;2.22;71.48
48053;BME280;33824;51.600;5.718;2023-04-04T00:42:23;102814.91;;;2.21;71.48
48053;BME280;33824;51.600;5.718;2023-04-04T00:44:50;102816.72;;;2.20;71.78
48053;BME280;33824;51.600;5.718;2023-04-04T00:47:16;102812.38;;;2.19;71.68
48053;BME280;33824;51.600;5.718;2023-04-04T00:49:43;102809.19;;;2.13;71.84
48053;BME280;33824;51.600;5.718;2023-04-04T00:52:09;102811.72;;;2.14;71.89
48053;BME280;33824;51.600;5.718;2023-04-04T00:54:34;102816.09;;;2.15;71.72
48053;BME280;33824;51.600;5.718;2023-04-04T00:57:01;102809.97;;;2.15;71.60
48053;BME280;33824;51.600;5.718;2023-04-04T00:59:28;102816.22;;;2.12;72.14
48053;BME280;33824;51.600;5.718;2023-04-04T01:01:54;102819.72;;;2.13;72.03
48053;BME280;33824;51.600;5.718;2023-04-04T01:04:19;102818.00;;;2.12;72.17
48053;BME280;33824;51.600;5.718;2023-04-04T01:06:45;102811.13;;;2.09;72.07
48053;BME280;33824;51.600;5.718;2023-04-04T01:09:11;102811.13;;;2.09;71.82
48053;BME280;33824;51.600;5.718;2023-04-04T01:11:37;102811.22;;;2.06;72.26
48053;BME280;33824;51.600;5.718;2023-04-04T01:14:03;102803.34;;;2.06;71.88
48053;BME280;33824;51.600;5.718;2023-04-04T01:16:28;102798.22;;;2.03;72.18
48053;BME280;33824;51.600;5.718;2023-04-04T01:18:56;102792.97;;;2.03;72.27
48053;BME280;33824;51.600;5.718;2023-04-04T01:21:22;102799.03;;;2.05;72.12
48053;BME280;33824;51.600;5.718;2023-04-04T01:24:01;102797.31;;;2.04;72.03
48053;BME280;33824;51.600;5.718;2023-04-04T01:26:29;102791.97;;;2.06;71.80
48053;BME280;33824;51.600;5.718;2023-04-04T01:28:57;102792.06;;;2.04;72.14
48053;BME280;33824;51.600;5.718;2023-04-04T01:32:23;102796.25;;;1.89;72.13
48053;BME280;33824;51.600;5.718;2023-04-04T01:35:12;102795.59;;;1.84;71.98
48053;BME280;33824;51.600;5.718;2023-04-04T01:37:56;102791.25;;;1.83;71.94
48053;BME280;33824;51.600;5.718;2023-04-04T01:40:31;102786.00;;;1.83;72.03
48053;BME280;33824;51.600;5.718;2023-04-04T01:42:59;102785.94;;;1.85;72.41
48053;BME280;33824;51.600;5.718;2023-04-04T01:45:25;102788.56;;;1.85;72.36
48053;BME280;33824;51.600;5.718;2023-04-04T01:47:51;102788.63;;;1.83;72.60
48053;BME280;33824;51.600;5.718;2023-04-04T01:50:16;102779.88;;;1.83;72.50
48053;BME280;33824;51.600;5.718;2023-04-04T01:52:42;102787.75;;;1.83;72.46
48053;BME280;33824;51.600;5.718;2023-04-04T01:55:08;102789.47;;;1.84;72.41
48053;BME280;33824;51.600;5.718;2023-04-04T01:57:34;102784.38;;;1.81;72.16
48053;BME280;33824;51.600;5.718;2023-04-04T01:59:59;102788.00;;;1.78;72.49
48053;BME280;33824;51.600;5.718;2023-04-04T02:02:25;102784.50;;;1.78;72.06
48053;BME280;33824;51.600;5.718;2023-04-04T02:04:51;102775.91;;;1.74;72.65
48053;BME280;33824;51.600;5.718;2023-04-04T02:07:17;102785.63;;;1.72;72.48
48053;BME280;33824;51.600;5.718;2023-04-04T02:09:42;102781.28;;;1.71;72.36
48053;BME280;33824;51.600;5.718;2023-04-04T02:12:08;102787.50;;;1.70;72.29
48053;BME280;33824;51.600;5.718;2023-04-04T02:14:33;102786.78;;;1.67;72.76
48053;BME280;33824;51.600;5.718;2023-04-04T02:17:00;102791.25;;;1.65;72.56
48053;BME280;33824;51.600;5.718;2023-04-04T02:19:25;102784.34;;;1.62;72.25
48053;BME280;33824;51.600;5.718;2023-04-04T02:21:53;102792.25;;;1.62;72.29
48053;BME280;33824;51.600;5.718;2023-04-04T02:24:18;102793.31;;;1.58;72.61
48053;BME280;33824;51.600;5.718;2023-04-04T02:26:44;102795.06;;;1.58;72.79
48053;BME280;33824;51.600;5.718;2023-04-04T02:29:09;102798.63;;;1.57;72.91
48053;BME280;33824;51.600;5.718;2023-04-04T02:31:35;102794.50;;;1.51;72.96
48053;BME280;33824;51.600;5.718;2023-04-04T02:34:00;102802.44;;;1.50;72.91
48053;BME280;33824;51.600;5.718;2023-04-04T02:36:26;102804.31;;;1.48;73.24
48053;BME280;33824;51.600;5.718;2023-04-04T02:38:53;102800.81;;;1.47;73.11
48053;BME280;33824;51.600;5.718;2023-04-04T02:41:18;102795.56;;;1.47;73.32
48053;BME280;33824;51.600;5.718;2023-04-04T02:43:44;102801.72;;;1.46;73.59
48053;BME280;33824;51.600;5.718;2023-04-04T02:46:09;102806.22;;;1.44;73.10
48053;BME280;33824;51.600;5.718;2023-04-04T02:48:35;102795.97;;;1.38;73.54
48053;BME280;33824;51.600;5.718;2023-04-04T02:51:01;102795.97;;;1.38;73.37
48053;BME280;33824;51.600;5.718;2023-04-04T02:53:27;102784.66;;;1.36;73.83
48053;BME280;33824;51.600;5.718;2023-04-04T02:55:52;102796.09;;;1.35;73.56
48053;BME280;33824;51.600;5.718;2023-04-04T02:58:18;102790.91;;;1.33;73.32
48053;BME280;33824;51.600;5.718;2023-04-04T03:00:43;102793.59;;;1.32;74.12
48053;BME280;33824;51.600;5.718;2023-04-04T03:03:11;102797.16;;;1.31;73.42
48053;BME280;33824;51.600;5.718;2023-04-04T03:05:37;102781.47;;;1.29;74.04
48053;BME280;33824;51.600;5.718;2023-04-04T03:08:02;102791.19;;;1.27;73.62
48053;BME280;33824;51.600;5.718;2023-04-04T03:10:29;102785.91;;;1.27;74.39
48053;BME280;33824;51.600;5.718;2023-04-04T03:12:54;102778.94;;;1.26;73.85
48053;BME280;33824;51.600;5.718;2023-04-04T03:15:21;102778.94;;;1.26;73.95
48053;BME280;33824;51.600;5.718;2023-04-04T03:17:47;102776.41;;;1.25;73.82
48053;BME280;33824;51.600;5.718;2023-04-04T03:20:13;102773.84;;;1.23;73.96
48053;BME280;33824;51.600;5.718;2023-04-04T03:22:39;102786.91;;;1.25;74.24
48053;BME280;33824;51.600;5.718;2023-04-04T03:25:07;102775.59;;;1.23;73.78
48053;BME280;33824;51.600;5.718;2023-04-04T03:27:33;102780.00;;;1.22;74.42
48053;BME280;33824;51.600;5.718;2023-04-04T03:30:01;102777.50;;;1.19;74.38
48053;BME280;33824;51.600;5.718;2023-04-04T03:32:26;102776.66;;;1.19;74.30
48053;BME280;33824;51.600;5.718;2023-04-04T03:34:52;102775.88;;;1.17;73.98
48053;BME280;33824;51.600;5.718;2023-04-04T03:37:18;102782.97;;;1.15;73.98
48053;BME280;33824;51.600;5.718;2023-04-04T03:39:44;102781.28;;;1.14;74.40
48053;BME280;33824;51.600;5.718;2023-04-04T03:42:10;102780.56;;;1.10;74.21
48053;BME280;33824;51.600;5.718;2023-04-04T03:44:40;102768.47;;;1.06;74.01
48053;BME280;33824;51.600;5.718;2023-04-04T03:47:05;102770.25;;;1.06;73.89
48053;BME280;33824;51.600;5.718;2023-04-04T03:49:32;102775.56;;;1.04;73.70
48053;BME280;33824;51.600;5.718;2023-04-04T03:51:58;102764.28;;;1.02;74.08
48053;BME280;33824;51.600;5.718;2023-04-04T03:54:26;102773.06;;;1.01;74.26
48053;BME280;33824;51.600;5.718;2023-04-04T03:56:52;102766.81;;;1.04;74.30
48053;BME280;33824;51.600;5.718;2023-04-04T03:59:18;102769.44;;;1.04;74.29
48053;BME280;33824;51.600;5.718;2023-04-04T04:01:43;102762.56;;;1.01;74.59
48053;BME280;33824;51.600;5.718;2023-04-04T04:04:09;102761.75;;;0.99;74.10
48053;BME280;33824;51.600;5.718;2023-04-04T04:06:34;102760.19;;;0.95;74.44
48053;BME280;33824;51.600;5.718;2023-04-04T04:09:00;102763.78;;;0.92;74.41
48053;BME280;33824;51.600;5.718;2023-04-04T04:11:26;102758.63;;;0.91;75.02
48053;BME280;33824;51.600;5.718;2023-04-04T04:13:52;102765.69;;;0.89;74.97
48053;BME280;33824;51.600;5.718;2023-04-04T04:16:17;102764.94;;;0.87;74.87
48053;BME280;33824;51.600;5.718;2023-04-04T04:18:43;102763.22;;;0.86;75.05
48053;BME280;33824;51.600;5.718;2023-04-04T04:21:08;102762.34;;;0.85;75.23
48053;BME280;33824;51.600;5.718;2023-04-04T04:23:34;102755.38;;;0.84;75.92
48053;BME280;33824;51.600;5.718;2023-04-04T04:25:59;102762.41;;;0.84;75.75
48053;BME280;33824;51.600;5.718;2023-04-04T04:28:25;102758.16;;;0.81;75.22
48053;BME280;33824;51.600;5.718;2023-04-04T04:30:51;102762.63;;;0.79;75.41
48053;BME280;33824;51.600;5.718;2023-04-04T04:33:17;102767.94;;;0.78;75.70
48053;BME280;33824;51.600;5.718;2023-04-04T04:35:43;102754.84;;;0.76;75.30
48053;BME280;33824;51.600;5.718;2023-04-04T04:38:09;102763.66;;;0.75;75.61
48053;BME280;33824;51.600;5.718;2023-04-04T04:40:35;102762.09;;;0.71;75.76
48053;BME280;33824;51.600;5.718;2023-04-04T04:43:01;102768.19;;;0.72;75.31
48053;BME280;33824;51.600;5.718;2023-04-04T04:45:26;102760.56;;;0.66;75.75
48053;BME280;33824;51.600;5.718;2023-04-04T04:47:53;102765.16;;;0.61;75.31
48053;BME280;33824;51.600;5.718;2023-04-04T04:50:18;102766.81;;;0.63;75.71
48053;BME280;33824;51.600;5.718;2023-04-04T04:52:49;102764.22;;;0.62;75.75
48053;BME280;33824;51.600;5.718;2023-04-04T04:55:14;102766.94;;;0.60;76.06
48053;BME280;33824;51.600;5.718;2023-04-04T04:57:40;102768.69;;;0.60;76.58
48053;BME280;33824;51.600;5.718;2023-04-04T05:00:06;102767.88;;;0.58;75.82
48053;BME280;33824;51.600;5.718;2023-04-04T05:02:31;102766.22;;;0.57;76.58
48053;BME280;33824;51.600;5.718;2023-04-04T05:04:57;102774.13;;;0.55;76.56
48053;BME280;33824;51.600;5.718;2023-04-04T05:07:23;102773.41;;;0.52;76.49
48053;BME280;33824;51.600;5.718;2023-04-04T05:09:51;102774.44;;;0.47;76.28
48053;BME280;33824;51.600;5.718;2023-04-04T05:12:17;102776.16;;;0.48;76.58
48053;BME280;33824;51.600;5.718;2023-04-04T05:14:43;102781.41;;;0.48;76.75
48053;BME280;33824;51.600;5.718;2023-04-04T05:17:09;102784.03;;;0.48;77.11
48053;BME280;33824;51.600;5.718;2023-04-04T05:19:34;102782.31;;;0.47;76.88
48053;BME280;33824;51.600;5.718;2023-04-04T05:22:00;102784.81;;;0.51;76.92
48053;BME280;33824;51.600;5.718;2023-04-04T05:24:25;102787.53;;;0.49;77.17
48053;BME280;33824;51.600;5.718;2023-04-04T05:26:52;102790.97;;;0.49;76.86
48053;BME280;33824;51.600;5.718;2023-04-04T05:29:17;102792.63;;;0.52;77.75
48053;BME280;33824;51.600;5.718;2023-04-04T05:31:43;102790.88;;;0.53;77.49
48053;BME280;33824;51.600;5.718;2023-04-04T05:34:08;102793.38;;;0.56;77.28
48053;BME280;33824;51.600;5.718;2023-04-04T05:36:34;102780.16;;;0.57;76.87
48053;BME280;33824;51.600;5.718;2023-04-04T05:39:01;102779.06;;;0.63;76.83
48053;BME280;33824;51.600;5.718;2023-04-04T05:41:26;102782.50;;;0.65;76.96
48053;BME280;33824;51.600;5.718;2023-04-04T05:43:52;102789.31;;;0.69;77.02
48053;BME280;33824;51.600;5.718;2023-04-04T05:46:18;102791.50;;;0.79;76.99
48053;BME280;33824;51.600;5.718;2023-04-04T05:48:43;102797.22;;;0.89;77.15
48053;BME280;33824;51.600;5.718;2023-04-04T05:51:09;102798.53;;;0.99;77.21
48053;BME280;33824;51.600;5.718;2023-04-04T05:53:34;102805.03;;;1.11;77.29
48053;BME280;33824;51.600;5.718;2023-04-04T05:56:00;102803.88;;;1.18;77.55
48053;BME280;33824;51.600;5.718;2023-04-04T05:58:25;102806.88;;;1.29;77.07
48053;BME280;33824;51.600;5.718;2023-04-04T06:00:51;102803.34;;;1.49;77.06
48053;BME280;33824;51.600;5.718;2023-04-04T06:03:17;102801.03;;;1.61;77.28
48053;BME280;33824;51.600;5.718;2023-04-04T06:05:42;102801.41;;;1.72;76.96
48053;BME280;33824;51.600;5.718;2023-04-04T06:08:10;102804.50;;;1.82;76.92
48053;BME280;33824;51.600;5.718;2023-04-04T06:10:36;102797.09;;;1.90;76.70
48053;BME280;33824;51.600;5.718;2023-04-04T06:13:02;102796.47;;;2.04;76.78
48053;BME280;33824;51.600;5.718;2023-04-04T06:15:27;102806.19;;;2.20;76.95
48053;BME280;33824;51.600;5.718;2023-04-04T06:17:53;102800.19;;;2.35;76.75
48053;BME280;33824;51.600;5.718;2023-04-04T06:20:18;102798.03;;;2.43;76.27
48053;BME280;33824;51.600;5.718;2023-04-04T06:22:46;102800.88;;;2.58;76.24
48053;BME280;33824;51.600;5.718;2023-04-04T06:25:12;102812.63;;;2.68;76.05
48053;BME280;33824;51.600;5.718;2023-04-04T06:27:38;102818.22;;;2.79;75.75
48053;BME280;33824;51.600;5.718;2023-04-04T06:30:08;102818.53;;;2.90;75.80
48053;BME280;33824;51.600;5.718;2023-04-04T06:32:33;102816.16;;;3.03;75.70
48053;BME280;33824;51.600;5.718;2023-04-04T06:34:59;102807.00;;;3.10;75.29
48053;BME280;33824;51.600;5.718;2023-04-04T06:37:24;102810.34;;;3.13;74.58
48053;BME280;33824;51.600;5.718;2023-04-04T06:39:50;102810.81;;;3.21;74.67
48053;BME280;33824;51.600;5.718;2023-04-04T06:42:16;102812.31;;;3.43;74.72
48053;BME280;33824;51.600;5.718;2023-04-04T06:44:42;102823.53;;;3.63;74.63
48053;BME280;33824;51.600;5.718;2023-04-04T06:47:07;102824.25;;;3.82;74.45
48053;BME280;33824;51.600;5.718;2023-04-04T06:49:33;102822.91;;;3.91;74.04
48053;BME280;33824;51.600;5.718;2023-04-04T06:51:59;102822.41;;;4.00;73.40
48053;BME280;33824;51.600;5.718;2023-04-04T06:54:25;102832.28;;;4.12;72.62
48053;BME280;33824;51.600;5.718;2023-04-04T06:56:51;102823.88;;;4.21;72.53
48053;BME280;33824;51.600;5.718;2023-04-04T06:59:17;102821.91;;;4.25;71.62
48053;BME280;33824;51.600;5.718;2023-04-04T07:01:43;102816.38;;;4.29;71.10
48053;BME280;33824;51.600;5.718;2023-04-04T07:04:09;102822.66;;;4.43;71.40
48053;BME280;33824;51.600;5.718;2023-04-04T07:06:34;102818.41;;;4.56;71.20
48053;BME280;33824;51.600;5.718;2023-04-04T07:09:00;102826.19;;;4.73;71.15
48053;BME280;33824;51.600;5.718;2023-04-04T07:11:25;102829.34;;;4.79;70.68
48053;BME280;33824;51.600;5.718;2023-04-04T07:13:51;102829.69;;;4.89;70.66
48053;BME280;33824;51.600;5.718;2023-04-04T07:16:16;102824.53;;;5.02;70.25
48053;BME280;33824;51.600;5.718;2023-04-04T07:18:42;102814.25;;;5.11;70.45
48053;BME280;33824;51.600;5.718;2023-04-04T07:21:08;102823.91;;;5.26;69.63
48053;BME280;33824;51.600;5.718;2023-04-04T07:23:34;102822.06;;;5.43;69.47
48053;BME280;33824;51.600;5.718;2023-04-04T07:26:00;102818.47;;;5.58;69.10
48053;BME280;33824;51.600;5.718;2023-04-04T07:28:26;102821.97;;;5.72;68.37
48053;BME280;33824;51.600;5.718;2023-04-04T07:30:51;102815.94;;;5.85;68.02
48053;BME280;33824;51.600;5.718;2023-04-04T07:33:17;102810.47;;;5.88;67.05
48053;BME280;33824;51.600;5.718;2023-04-04T07:35:42;102808.75;;;6.01;67.21
48053;BME280;33824;51.600;5.718;2023-04-04T07:38:08;102797.47;;;6.11;66.83
48053;BME280;33824;51.600;5.718;2023-04-04T07:40:34;102806.25;;;6.26;65.88
48053;BME280;33824;51.600;5.718;2023-04-04T07:43:00;102807.34;;;6.36;65.36
48053;BME280;33824;51.600;5.718;2023-04-04T07:45:25;102806.66;;;6.47;65.64
48053;BME280;33824;51.600;5.718;2023-04-04T07:47:51;102811.34;;;6.56;65.16
48053;BME280;33824;51.600;5.718;2023-04-04T07:50:17;102815.41;;;6.61;64.49
48053;BME280;33824;51.600;5.718;2023-04-04T07:52:48;102810.34;;;6.71;64.03
48053;BME280;33824;51.600;5.718;2023-04-04T07:55:13;102806.13;;;6.81;63.07
48053;BME280;33824;51.600;5.718;2023-04-04T07:57:39;102807.09;;;6.93;63.29
48053;BME280;33824;51.600;5.718;2023-04-04T08:00:08;102811.06;;;7.00;62.65
48053;BME280;33824;51.600;5.718;2023-04-04T08:02:36;102803.25;;;7.11;61.27
48053;BME280;33824;51.600;5.718;2023-04-04T08:05:02;102798.66;;;7.13;60.31
48053;BME280;33824;51.600;5.718;2023-04-04T08:07:28;102808.53;;;7.23;60.67
48053;BME280;33824;51.600;5.718;2023-04-04T08:09:54;102798.56;;;7.27;59.60
48053;BME280;33824;51.600;5.718;2023-04-04T08:12:20;102801.22;;;7.27;60.25
48053;BME280;33824;51.600;5.718;2023-04-04T08:14:45;102809.72;;;7.32;59.28
48053;BME280;33824;51.600;5.718;2023-04-04T08:17:11;102804.97;;;7.37;59.21
48053;BME280;33824;51.600;5.718;2023-04-04T08:19:36;102814.59;;;7.51;57.48
48053;BME280;33824;51.600;5.718;2023-04-04T08:22:02;102814.06;;;7.58;58.49
48053;BME280;33824;51.600;5.718;2023-04-04T08:24:28;102812.19;;;7.60;57.83
48053;BME280;33824;51.600;5.718;2023-04-04T08:26:53;102817.59;;;7.71;58.22
48053;BME280;33824;51.600;5.718;2023-04-04T08:29:19;102811.69;;;7.92;58.13
48053;BME280;33824;51.600;5.718;2023-04-04T08:31:46;102815.50;;;8.13;57.44
48053;BME280;33824;51.600;5.718;2023-04-04T08:34:12;102800.03;;;8.18;55.96
48053;BME280;33824;51.600;5.718;2023-04-04T08:36:38;102800.91;;;8.31;56.55
48053;BME280;33824;51.600;5.718;2023-04-04T08:39:03;102793.38;;;8.49;56.24
48053;BME280;33824;51.600;5.718;2023-04-04T08:41:29;102797.31;;;8.56;54.58
48053;BME280;33824;51.600;5.718;2023-04-04T08:43:59;102783.81;;;8.70;54.45
48053;BME280;33824;51.600;5.718;2023-04-04T08:46:28;102800.41;;;8.74;53.13
48053;BME280;33824;51.600;5.718;2023-04-04T08:48:55;102800.25;;;8.75;51.83
48053;BME280;33824;51.600;5.718;2023-04-04T08:51:22;102795.84;;;8.87;51.84
48053;BME280;33824;51.600;5.718;2023-04-04T08:53:50;102790.50;;;8.87;51.53
48053;BME280;33824;51.600;5.718;2023-04-04T08:56:17;102789.94;;;8.94;52.24
48053;BME280;33824;51.600;5.718;2023-04-04T08:58:42;102787.16;;;8.96;51.50
48053;BME280;33824;51.600;5.718;2023-04-04T09:01:09;102789.09;;;8.94;50.49
48053;BME280;33824;51.600;5.718;2023-04-04T09:03:35;102782.56;;;8.98;50.34
48053;BME280;33824;51.600;5.718;2023-04-04T09:06:03;102789.75;;;9.08;50.59
48053;BME280;33824;51.600;5.718;2023-04-04T09:08:28;102786.00;;;9.11;49.71
48053;BME280;33824;51.600;5.718;2023-04-04T09:10:54;102786.59;;;9.14;49.41
48053;BME280;33824;51.600;5.718;2023-04-04T09:13:20;102783.88;;;9.27;50.52
48053;BME280;33824;51.600;5.718;2023-04-04T09:15:49;102779.16;;;9.31;48.44
48053;BME280;33824;51.600;5.718;2023-04-04T09:18:18;102793.56;;;9.28;48.80
48053;BME280;33824;51.600;5.718;2023-04-04T09:20:45;102787.97;;;9.20;47.80
48053;BME280;33824;51.600;5.718;2023-04-04T09:23:15;102780.09;;;9.19;47.33
48053;BME280;33824;51.600;5.718;2023-04-04T09:26:02;102774.63;;;9.09;45.18
48053;BME280;33824;51.600;5.718;2023-04-04T09:28:27;102779.81;;;9.10;48.28
48053;BME280;33824;51.600;5.718;2023-04-04T09:30:53;102773.53;;;9.00;46.67
48053;BME280;33824;51.600;5.718;2023-04-04T09:33:20;102780.72;;;9.33;48.88
48053;BME280;33824;51.600;5.718;2023-04-04T09:35:51;102784.47;;;9.42;47.24
48053;BME280;33824;51.600;5.718;2023-04-04T09:38:21;102782.94;;;9.50;47.12
48053;BME280;33824;51.600;5.718;2023-04-04T09:40:47;102776.75;;;9.50;46.75
48053;BME280;33824;51.600;5.718;2023-04-04T09:43:13;102765.59;;;9.67;47.19
48053;BME280;33824;51.600;5.718;2023-04-04T09:45:40;102767.66;;;9.75;47.35
48053;BME280;33824;51.600;5.718;2023-04-04T09:48:06;102764.78;;;9.78;46.87
48053;BME280;33824;51.600;5.718;2023-04-04T09:50:34;102768.75;;;9.83;46.40
48053;BME280;33824;51.600;5.718;2023-04-04T09:53:00;102768.97;;;9.91;46.93
48053;BME280;33824;51.600;5.718;2023-04-04T09:55:33;102761.84;;;9.92;45.56
48053;BME280;33824;51.600;5.718;2023-04-04T09:58:11;102763.78;;;9.79;44.43
48053;BME280;33824;51.600;5.718;2023-04-04T10:00:44;102757.25;;;9.72;43.17
48053;BME280;33824;51.600;5.718;2023-04-04T10:03:16;102763.28;;;9.51;43.46
48053;BME280;33824;51.600;5.718;2023-04-04T10:05:46;102764.28;;;9.84;45.18
48053;BME280;33824;51.600;5.718;2023-04-04T10:08:15;102759.00;;;10.04;45.36
48053;BME280;33824;51.600;5.718;2023-04-04T10:10:51;102754.16;;;10.09;44.94
48053;BME280;33824;51.600;5.718;2023-04-04T10:13:28;102762.94;;;10.00;44.87
48053;BME280;33824;51.600;5.718;2023-04-04T10:15:55;102758.66;;;10.20;45.70
48053;BME280;33824;51.600;5.718;2023-04-04T10:18:26;102754.25;;;10.41;45.06
48053;BME280;33824;51.600;5.718;2023-04-04T10:20:53;102748.06;;;10.41;45.31
48053;BME280;33824;51.600;5.718;2023-04-04T10:23:20;102747.56;;;9.93;43.30
48053;BME280;33824;51.600;5.718;2023-04-04T10:25:55;102746.00;;;9.57;43.76
48053;BME280;33824;51.600;5.718;2023-04-04T10:28:21;102757.13;;;9.40;43.23
48053;BME280;33824;51.600;5.718;2023-04-04T10:30:50;102748.16;;;9.41;43.44
48053;BME280;33824;51.600;5.718;2023-04-04T10:33:25;102743.94;;;9.27;42.71
48053;BME280;33824;51.600;5.718;2023-04-04T10:35:53;102756.16;;;9.41;42.86
48053;BME280;33824;51.600;5.718;2023-04-04T10:38:27;102749.97;;;9.40;41.63
48053;BME280;33824;51.600;5.718;2023-04-04T10:40:57;102749.13;;;9.29;42.71
48053;BME280;33824;51.600;5.718;2023-04-04T10:43:24;102747.56;;;9.48;42.06
48053;BME280;33824;51.600;5.718;2023-04-04T10:45:51;102747.56;;;9.37;42.28
48053;BME280;33824;51.600;5.718;2023-04-04T10:48:17;102735.34;;;9.35;42.92
48053;BME280;33824;51.600;5.718;2023-04-04T10:50:45;102742.38;;;9.47;42.02
48053;BME280;33824;51.600;5.718;2023-04-04T10:53:14;102734.25;;;9.37;41.52
48053;BME280;33824;51.600;5.718;2023-04-04T10:55:40;102736.66;;;9.51;41.83
48053;BME280;33824;51.600;5.718;2023-04-04T10:58:08;102728.69;;;9.51;40.28
48053;BME280;33824;51.600;5.718;2023-04-04T11:00:48;102735.53;;;9.09;38.52
48053;BME280;33824;51.600;5.718;2023-04-04T11:03:13;102718.88;;;9.52;41.55
48053;BME280;33824;51.600;5.718;2023-04-04T11:05:39;102713.53;;;9.63;41.37
48053;BME280;33824;51.600;5.718;2023-04-04T11:08:10;102715.25;;;9.53;40.57
48053;BME280;33824;51.600;5.718;2023-04-04T11:10:43;102712.84;;;9.28;40.48
48053;BME280;33824;51.600;5.718;2023-04-04T11:15:57;102710.28;;;9.48;41.68
48053;BME280;33824;51.600;5.718;2023-04-04T11:18:47;102700.22;;;9.63;40.14
48053;BME280;33824;51.600;5.718;2023-04-04T11:21:20;102705.94;;;9.58;41.97
48053;BME280;33824;51.600;5.718;2023-04-04T11:28:59;102680.50;;;10.08;39.91
48053;BME280;33824;51.600;5.718;2023-04-04T11:31:32;102701.91;;;9.75;40.98
48053;BME280;33824;51.600;5.718;2023-04-04T11:34:14;102692.19;;;9.96;40.61
48053;BME280;33824;51.600;5.718;2023-04-04T11:44:41;102688.09;;;10.56;39.03
48053;BME280;33824;51.600;5.718;2023-04-04T11:47:23;102680.88;;;10.68;39.88
48053;BME280;33824;51.600;5.718;2023-04-04T11:49:49;102674.63;;;10.37;40.87
48053;BME280;33824;51.600;5.718;2023-04-04T11:52:17;102680.97;;;10.25;41.11
48053;BME280;33824;51.600;5.718;2023-04-04T11:54:44;102679.91;;;10.16;41.00
48053;BME280;33824;51.600;5.718;2023-04-04T11:57:14;102680.75;;;10.17;40.94
48053;BME280;33824;51.600;5.718;2023-04-04T11:59:50;102674.19;;;10.52;41.09
48053;BME280;33824;51.600;5.718;2023-04-04T12:02:19;102665.84;;;10.67;40.73
48053;BME280;33824;51.600;5.718;2023-04-04T12:04:46;102668.91;;;10.41;40.11
48053;BME280;33824;51.600;5.718;2023-04-04T12:07:12;102674.63;;;10.37;40.52
48053;BME280;33824;51.600;5.718;2023-04-04T12:09:40;102663.25;;;10.35;40.11
48053;BME280;33824;51.600;5.718;2023-04-04T12:12:10;102667.25;;;10.29;39.71
48053;BME280;33824;51.600;5.718;2023-04-04T12:14:36;102659.78;;;10.44;39.30
48053;BME280;33824;51.600;5.718;2023-04-04T12:17:04;102662.63;;;10.31;39.54
48053;BME280;33824;51.600;5.718;2023-04-04T12:19:30;102647.28;;;10.24;40.52
48053;BME280;33824;51.600;5.718;2023-04-04T12:21:56;102660.38;;;10.47;41.24
48053;BME280;33824;51.600;5.718;2023-04-04T12:24:22;102647.19;;;10.67;41.35
48053;BME280;33824;51.600;5.718;2023-04-04T12:26:50;102642.84;;;10.96;42.13
48053;BME280;33824;51.600;5.718;2023-04-04T12:29:19;102638.25;;;11.07;40.13
48053;BME280;33824;51.600;5.718;2023-04-04T12:31:47;102642.50;;;10.80;39.33
48053;BME280;33824;51.600;5.718;2023-04-04T12:34:18;102638.31;;;10.87;38.88
48053;BME280;33824;51.600;5.718;2023-04-04T12:36:52;102632.72;;;10.90;39.79
48053;BME280;33824;51.600;5.718;2023-04-04T12:39:19;102626.13;;;10.73;40.02
48053;BME280;33824;51.600;5.718;2023-04-04T12:42:07;102625.38;;;10.62;40.11
48053;BME280;33824;51.600;5.718;2023-04-04T12:44:37;102624.34;;;10.53;40.30
48053;BME280;33824;51.600;5.718;2023-04-04T12:47:05;102614.66;;;10.73;40.30
48053;BME280;33824;51.600;5.718;2023-04-04T12:49:33;102611.81;;;10.95;41.72
48053;BME280;33824;51.600;5.718;2023-04-04T12:51:59;102613.03;;;11.21;40.81
48053;BME280;33824;51.600;5.718;2023-04-04T12:54:37;102611.97;;;11.33;39.29
48053;BME280;33824;51.600;5.718;2023-04-04T12:57:06;102603.56;;;11.57;39.80
48053;BME280;33824;51.600;5.718;2023-04-04T12:59:36;102597.97;;;11.70;39.98
48053;BME280;33824;51.600;5.718;2023-04-04T13:02:13;102586.03;;;11.83;39.78
48053;BME280;33824;51.600;5.718;2023-04-04T13:04:39;102586.34;;;11.90;39.75
48053;BME280;33824;51.600;5.718;2023-04-04T13:07:19;102578.88;;;11.93;38.77
48053;BME280;33824;51.600;5.718;2023-04-04T13:09:56;102579.75;;;11.35;38.18
48053;BME280;33824;51.600;5.718;2023-04-04T13:12:22;102590.47;;;11.54;39.86
48053;BME280;33824;51.600;5.718;2023-04-04T13:17:24;102572.38;;;11.67;40.51